createdAt,value
2018-06-11T00:01:41.456Z,7.70
2018-06-11T00:04:18.117Z,6.75
2018-06-11T00:06:51.954Z,7.17
2018-06-11T00:09:30.859Z,7.37
2018-06-11T00:12:03.814Z,7.70
2018-06-11T00:14:37.942Z,7.60
2018-06-11T00:17:20.423Z,8.28
2018-06-11T00:19:58.061Z,7.07
2018-06-11T00:22:38.107Z,7.00
2018-06-11T00:25:13.017Z,7.20
2018-06-11T00:27:53.170Z,8.75
2018-06-11T00:30:28.407Z,7.72
2018-06-11T00:33:04.771Z,8.18
2018-06-11T00:35:46.178Z,7.65
2018-06-11T00:38:25.818Z,7.90
2018-06-11T00:41:03.339Z,7.60
2018-06-11T00:46:39.553Z,8.25
2018-06-11T00:49:20.175Z,8.08
2018-06-11T00:57:42.705Z,8.03
2018-06-11T01:00:29.713Z,7.80
2018-06-11T01:28:55.547Z,10.30
2018-06-11T01:40:14.195Z,10.55
2018-06-11T02:13:15.057Z,13.03
2018-06-11T02:30:58.393Z,12.10
2018-06-11T04:19:55.528Z,14.78
2018-06-11T04:22:23.014Z,16.30
2018-06-11T04:24:50.523Z,16.07
2018-06-11T04:27:18.050Z,16.35
2018-06-11T04:29:45.614Z,16.00
2018-06-11T04:32:13.059Z,16.45
2018-06-11T04:34:40.571Z,14.07
2018-06-11T04:37:08.071Z,14.07
2018-06-11T04:39:35.591Z,16.20
2018-06-11T04:42:03.060Z,18.30
2018-06-11T04:44:30.612Z,16.12
2018-06-11T04:46:58.081Z,15.78
2018-06-11T04:49:25.606Z,16.60
2018-06-11T04:51:53.165Z,15.15
2018-06-11T04:54:20.642Z,16.90
2018-06-11T04:56:48.154Z,16.73
2018-06-11T04:59:15.637Z,16.65
2018-06-11T05:01:43.158Z,16.12
2018-06-11T05:04:10.679Z,16.95
2018-06-11T05:06:38.164Z,16.30
2018-06-11T05:09:06.274Z,17.10
2018-06-11T05:11:33.797Z,17.23
2018-06-11T05:14:01.311Z,16.23
2018-06-11T05:16:28.909Z,14.60
2018-06-11T05:18:56.407Z,16.25
2018-06-11T05:21:23.956Z,16.15
2018-06-11T05:23:51.473Z,18.80
2018-06-11T05:26:19.014Z,16.83
2018-06-11T05:28:46.579Z,17.15
2018-06-11T05:31:14.067Z,17.30
2018-06-11T05:33:41.576Z,17.12
2018-06-11T05:36:09.118Z,15.78
2018-06-11T05:38:36.662Z,17.23
2018-06-11T05:41:04.172Z,16.20
2018-06-11T05:43:31.766Z,15.77
2018-06-11T05:45:59.359Z,15.70
2018-06-11T05:48:26.882Z,14.87
2018-06-11T05:50:54.405Z,13.67
2018-06-11T05:53:21.951Z,13.83
2018-06-11T05:55:49.515Z,14.47
2018-06-11T05:58:17.040Z,14.60
2018-06-11T06:00:44.559Z,14.27
2018-06-11T06:03:12.106Z,13.43
2018-06-11T06:05:39.639Z,14.10
2018-06-11T06:08:07.146Z,14.33
2018-06-11T06:10:34.762Z,14.00
2018-06-11T06:13:02.578Z,11.77
2018-06-11T06:15:30.122Z,13.60
2018-06-11T06:17:57.611Z,12.90
2018-06-11T06:20:25.180Z,11.80
2018-06-11T06:22:52.630Z,11.77
2018-06-11T06:25:20.141Z,10.30
2018-06-11T06:27:47.634Z,10.90
2018-06-11T06:30:15.165Z,10.00
2018-06-11T06:32:42.653Z,10.50
2018-06-11T06:35:10.186Z,9.00
2018-06-11T06:37:37.730Z,9.77
2018-06-11T06:40:05.255Z,10.03
2018-06-11T06:42:32.892Z,9.57
2018-06-11T06:45:00.425Z,10.07
2018-06-11T06:47:27.951Z,10.10
2018-06-11T06:49:55.472Z,10.70
2018-06-11T06:52:22.985Z,9.50
2018-06-11T06:54:50.509Z,8.77
2018-06-11T06:57:18.078Z,9.77
2018-06-11T06:59:45.585Z,8.90
2018-06-11T07:02:13.109Z,9.20
2018-06-11T07:04:40.606Z,8.13
2018-06-11T07:07:08.098Z,8.70
2018-06-11T07:09:35.634Z,9.13
2018-06-11T07:12:03.248Z,8.50
2018-06-11T07:14:30.742Z,9.27
2018-06-11T07:16:58.242Z,8.53
2018-06-11T07:19:25.706Z,8.10
2018-06-11T07:21:53.209Z,8.67
2018-06-11T07:24:20.715Z,8.80
2018-06-11T07:26:48.296Z,9.90
2018-06-11T07:29:15.791Z,9.00
2018-06-11T07:31:43.295Z,7.57
2018-06-11T07:34:10.860Z,8.77
2018-06-11T07:36:38.378Z,7.80
2018-06-11T07:39:06.890Z,7.80
2018-06-11T07:41:34.676Z,7.57
2018-06-11T07:44:02.285Z,8.50
2018-06-11T07:46:29.777Z,7.93
2018-06-11T14:57:25.495Z,7.80
2018-06-11T14:59:55.066Z,7.97
2018-06-11T15:02:23.447Z,7.70
2018-06-11T15:04:52.156Z,7.60
2018-06-11T15:07:20.900Z,8.20
2018-06-11T15:09:48.539Z,8.50
2018-06-11T15:12:16.432Z,8.30
2018-06-11T15:14:43.916Z,9.57
2018-06-11T15:17:11.486Z,9.00
2018-06-11T15:19:39.075Z,8.10
2018-06-11T15:22:06.593Z,8.00
2018-06-11T15:24:34.160Z,8.37
2018-06-11T15:27:01.706Z,8.40
2018-06-11T15:29:29.300Z,9.20
2018-06-11T15:44:32.330Z,4.17
2018-06-11T16:06:12.943Z,5.83
2018-06-11T16:08:52.708Z,5.17
2018-06-11T16:11:26.604Z,5.20
2018-06-11T16:14:00.494Z,5.22
2018-06-11T16:16:40.702Z,4.83
2018-06-11T16:19:31.308Z,4.90
2018-06-11T16:25:10.184Z,4.12
2018-06-11T16:27:46.850Z,4.45
2018-06-11T16:30:22.950Z,4.55
2018-06-11T16:32:56.158Z,4.10
2018-06-11T16:35:32.271Z,3.90
2018-06-11T16:38:05.511Z,4.72
2018-06-11T16:40:48.773Z,4.20
2018-06-11T16:43:22.737Z,4.00
2018-06-11T17:16:55.450Z,4.05
2018-06-11T17:19:40.636Z,3.62
2018-06-11T17:22:31.116Z,3.77
